createdAt,value
2022-11-02T00:01:20.436Z,83.40
2022-11-02T00:03:48.521Z,83.30
2022-11-02T00:06:15.456Z,83.32
2022-11-02T00:08:42.605Z,83.62
2022-11-02T00:11:10.361Z,83.66
2022-11-02T00:13:38.392Z,83.63
2022-11-02T00:16:14.844Z,83.77
2022-11-02T00:18:45.254Z,83.85
2022-11-02T00:21:13.167Z,83.86
2022-11-02T00:23:41.557Z,83.95
2022-11-02T00:26:10.548Z,83.91
2022-11-02T00:28:38.828Z,84.22
2022-11-02T00:31:06.608Z,84.30
2022-11-02T00:33:33.732Z,84.26
2022-11-02T00:36:00.442Z,84.21
2022-11-02T00:38:28.111Z,84.33
2022-11-02T00:41:02.969Z,84.53
2022-11-02T00:43:29.997Z,84.61
2022-11-02T00:46:03.570Z,84.70
2022-11-02T00:48:32.323Z,84.78
2022-11-02T00:50:59.593Z,84.57
2022-11-02T00:53:30.650Z,84.83
2022-11-02T00:55:58.557Z,84.76
2022-11-02T00:58:25.770Z,84.71
2022-11-02T01:00:52.497Z,84.80
2022-11-02T01:03:19.171Z,84.78
2022-11-02T01:05:47.944Z,84.78
2022-11-02T01:08:15.427Z,84.84
2022-11-02T01:10:48.150Z,84.99
2022-11-02T01:13:18.917Z,85.11
2022-11-02T01:15:46.139Z,85.09
2022-11-02T01:18:13.089Z,85.02
2022-11-02T01:20:40.839Z,85.22
2022-11-02T01:23:08.255Z,85.12
2022-11-02T01:25:35.617Z,85.11
2022-11-02T01:28:03.420Z,85.19
2022-11-02T01:30:30.683Z,85.43
2022-11-02T01:33:01.465Z,85.50
2022-11-02T01:35:29.397Z,85.66
2022-11-02T01:37:59.180Z,85.59
2022-11-02T01:40:26.887Z,85.82
2022-11-02T01:42:54.084Z,85.73
2022-11-02T01:45:20.787Z,85.61
2022-11-02T01:47:50.195Z,85.68
2022-11-02T01:50:23.284Z,85.68
2022-11-02T01:52:50.029Z,85.72
2022-11-02T01:55:23.090Z,85.51
2022-11-02T01:57:57.423Z,85.38
2022-11-02T02:00:28.739Z,85.26
2022-11-02T02:03:01.842Z,85.02
2022-11-02T02:05:30.927Z,84.94
2022-11-02T02:08:01.216Z,84.83
2022-11-02T02:10:28.591Z,84.89
2022-11-02T02:12:57.850Z,84.95
2022-11-02T02:15:36.180Z,84.97
2022-11-02T02:18:14.778Z,84.78
2022-11-02T02:20:44.402Z,85.00
2022-11-02T02:23:27.291Z,85.00
2022-11-02T02:26:09.932Z,85.06
2022-11-02T02:28:54.722Z,85.29
2022-11-02T02:31:31.706Z,85.52
2022-11-02T02:34:07.159Z,85.35
2022-11-02T02:36:47.794Z,85.25
2022-11-02T02:39:31.543Z,85.13
2022-11-02T02:42:11.751Z,85.33
2022-11-02T02:44:47.250Z,85.83
2022-11-02T02:47:19.510Z,85.96
2022-11-02T02:49:54.737Z,86.06
2022-11-02T02:52:24.613Z,86.16
2022-11-02T02:54:55.966Z,86.20
2022-11-02T02:57:26.898Z,85.94
2022-11-02T02:59:55.619Z,86.04
2022-11-02T03:02:27.923Z,86.04
2022-11-02T03:04:54.729Z,86.22
2022-11-02T03:07:31.207Z,86.54
2022-11-02T03:10:26.078Z,86.50
2022-11-02T03:13:23.134Z,87.18
2022-11-02T03:15:59.912Z,87.32
2022-11-02T03:18:39.575Z,87.30
2022-11-02T03:21:17.150Z,87.68
2022-11-02T03:23:56.304Z,87.75
2022-11-02T03:26:30.258Z,87.65
2022-11-02T03:29:05.290Z,88.01
2022-11-02T03:31:59.195Z,87.76
2022-11-02T03:34:35.380Z,87.51
2022-11-02T03:37:15.419Z,87.28
2022-11-02T03:39:47.720Z,86.50
2022-11-02T03:42:19.199Z,85.43
2022-11-02T03:44:53.911Z,84.75
2022-11-02T03:47:21.897Z,84.42
2022-11-02T03:49:52.124Z,84.25
2022-11-02T03:52:28.613Z,84.15
2022-11-02T03:55:05.960Z,84.85
2022-11-02T03:57:41.475Z,85.43
2022-11-02T04:00:09.838Z,85.24
2022-11-02T04:02:46.235Z,85.07
2022-11-02T04:05:14.039Z,84.79
2022-11-02T04:08:04.638Z,84.78
2022-11-02T04:10:32.121Z,84.90
2022-11-02T04:13:15.208Z,85.22
2022-11-02T04:15:43.642Z,85.08
2022-11-02T04:18:26.776Z,84.78
2022-11-02T04:20:53.985Z,84.31
2022-11-02T04:23:36.491Z,84.09
2022-11-02T04:26:05.701Z,83.87
2022-11-02T04:28:39.102Z,83.97
2022-11-02T04:31:06.422Z,83.45
2022-11-02T04:33:37.555Z,83.26
2022-11-02T04:36:08.252Z,83.32
2022-11-02T04:38:43.555Z,83.07
2022-11-02T04:41:34.729Z,83.51
2022-11-02T04:44:04.667Z,84.29
2022-11-02T04:46:34.264Z,85.26
2022-11-02T04:49:03.647Z,86.05
2022-11-02T04:51:32.863Z,86.47
2022-11-02T04:54:02.090Z,87.05
2022-11-02T04:56:30.172Z,86.90
2022-11-02T04:59:00.372Z,87.27
2022-11-02T05:01:30.410Z,87.02
2022-11-02T05:03:58.768Z,86.81
2022-11-02T05:06:26.790Z,86.84
2022-11-02T05:08:54.157Z,86.93
2022-11-02T05:11:21.563Z,86.68
2022-11-02T05:13:49.637Z,86.72
2022-11-02T05:16:19.302Z,87.08
2022-11-02T05:18:48.719Z,87.05
2022-11-02T05:21:16.199Z,86.90
2022-11-02T05:23:45.470Z,86.65
2022-11-02T05:26:12.672Z,86.52
2022-11-02T05:28:43.620Z,86.22
2022-11-02T05:31:12.625Z,85.79
2022-11-02T05:33:40.373Z,85.18
2022-11-02T05:36:13.781Z,84.96
2022-11-02T05:38:47.774Z,84.65
2022-11-02T05:41:15.559Z,84.90
2022-11-02T05:43:42.853Z,84.76
2022-11-02T05:46:11.626Z,84.49
2022-11-02T05:48:38.728Z,84.34
2022-11-02T05:51:05.548Z,85.00
2022-11-02T05:53:34.241Z,85.51
2022-11-02T05:56:02.514Z,86.10
2022-11-02T05:58:29.868Z,86.94
2022-11-02T06:01:01.078Z,87.49
2022-11-02T06:03:28.191Z,87.87
2022-11-02T06:05:58.665Z,88.44
2022-11-02T06:08:26.063Z,88.89
2022-11-02T06:10:53.265Z,89.16
2022-11-02T06:13:20.331Z,89.38
2022-11-02T06:15:47.163Z,88.96
2022-11-02T06:18:13.906Z,88.98
2022-11-02T06:20:41.250Z,89.21
2022-11-02T06:23:08.397Z,89.46
2022-11-02T06:25:35.737Z,89.59
2022-11-02T06:28:05.514Z,89.72
2022-11-02T06:30:34.904Z,89.77
2022-11-02T06:33:06.943Z,89.56
2022-11-02T06:35:35.193Z,89.39
2022-11-02T06:38:03.259Z,89.16
2022-11-02T06:40:29.994Z,89.14
2022-11-02T06:43:15.277Z,89.25
2022-11-02T06:45:47.784Z,88.76
2022-11-02T06:48:15.022Z,88.93
2022-11-02T06:50:42.343Z,88.83
2022-11-02T06:53:09.042Z,88.84
2022-11-02T06:55:35.895Z,88.56
2022-11-02T06:58:05.423Z,88.35
2022-11-02T07:00:32.469Z,87.67
2022-11-02T07:03:01.539Z,87.68
2022-11-02T07:05:30.245Z,87.49
2022-11-02T07:07:58.958Z,87.69
2022-11-02T07:10:26.822Z,87.81
2022-11-02T07:12:56.898Z,87.43
2022-11-02T07:15:35.650Z,86.96
2022-11-02T07:18:02.507Z,86.80
2022-11-02T07:20:31.817Z,86.57
2022-11-02T07:23:04.610Z,86.42
2022-11-02T07:25:33.471Z,86.05
2022-11-02T07:28:11.376Z,86.42
2022-11-02T07:30:38.246Z,86.45
2022-11-02T07:33:05.334Z,86.24
2022-11-02T07:35:36.497Z,85.76
2022-11-02T07:38:05.880Z,85.72
2022-11-02T07:40:35.032Z,85.87
2022-11-02T07:43:07.685Z,85.69
2022-11-02T07:45:50.906Z,85.69
2022-11-02T07:48:18.487Z,85.60
2022-11-02T07:50:47.325Z,85.88
2022-11-02T07:53:16.354Z,86.26
2022-11-02T07:55:45.684Z,86.24
2022-11-02T07:58:14.272Z,85.68
2022-11-02T08:00:42.171Z,85.07
2022-11-02T08:03:14.514Z,84.52
2022-11-02T08:05:43.668Z,84.35
2022-11-02T08:08:15.802Z,83.71
2022-11-02T08:10:44.872Z,83.67
2022-11-02T08:13:15.359Z,82.92
2022-11-02T08:15:42.307Z,82.61
2022-11-02T08:18:14.666Z,82.01
2022-11-02T08:20:43.218Z,81.78
2022-11-02T08:23:11.345Z,81.33
2022-11-02T08:25:42.015Z,81.19
2022-11-02T08:28:14.923Z,80.84
2022-11-02T08:30:42.102Z,79.99
2022-11-02T08:33:14.907Z,79.90
2022-11-02T08:35:43.765Z,79.75
2022-11-02T08:38:11.033Z,79.63
2022-11-02T08:40:39.617Z,79.73
2022-11-02T08:43:09.405Z,79.62
2022-11-02T08:46:12.837Z,78.51
2022-11-02T08:48:27.360Z,77.20
2022-11-02T08:50:55.754Z,76.84
2022-11-02T08:53:22.524Z,75.53
2022-11-02T08:55:50.784Z,74.01
2022-11-02T08:58:18.727Z,72.85
2022-11-02T09:00:45.685Z,71.10
2022-11-02T09:03:19.537Z,69.82
2022-11-02T09:05:50.936Z,68.97
2022-11-02T09:08:19.717Z,67.09
2022-11-02T09:10:49.475Z,66.62
2022-11-02T09:13:21.092Z,66.73
2022-11-02T09:15:53.383Z,66.15
2022-11-02T09:18:20.630Z,64.32
2022-11-02T09:20:51.552Z,64.00
2022-11-02T09:23:21.603Z,63.83
2022-11-02T09:25:50.082Z,62.98
2022-11-02T09:28:16.877Z,63.02
2022-11-02T09:30:43.674Z,63.22
2022-11-02T09:33:11.378Z,63.55
2022-11-02T09:35:42.372Z,64.25
2022-11-02T09:38:13.800Z,65.03
2022-11-02T09:40:46.151Z,64.44
2022-11-02T09:43:21.357Z,63.89
2022-11-02T09:45:51.592Z,63.66
2022-11-02T09:48:28.607Z,63.84
2022-11-02T09:51:09.099Z,63.31
2022-11-02T09:53:42.441Z,62.48
2022-11-02T09:56:11.214Z,59.91
2022-11-02T09:58:40.702Z,58.50
2022-11-02T10:01:19.565Z,58.45
2022-11-02T10:04:10.855Z,58.04
2022-11-02T10:06:43.067Z,57.93
2022-11-02T10:09:30.321Z,58.49
2022-11-02T10:12:08.556Z,58.57
2022-11-02T10:14:39.918Z,58.71
2022-11-02T10:17:10.125Z,58.79
2022-11-02T10:19:40.778Z,58.59
2022-11-02T10:22:13.116Z,58.08
2022-11-02T10:24:43.785Z,57.98
2022-11-02T10:27:26.523Z,58.25
2022-11-02T10:30:13.360Z,58.02
2022-11-02T10:35:34.011Z,58.62
2022-11-02T10:38:20.467Z,57.61
2022-11-02T10:41:02.820Z,56.58
2022-11-02T10:43:38.207Z,55.72
2022-11-02T10:46:12.048Z,55.50
2022-11-02T10:48:54.376Z,54.33
2022-11-02T10:51:22.135Z,54.68
2022-11-02T10:53:51.034Z,54.26
2022-11-02T10:56:20.446Z,53.70
2022-11-02T10:58:50.782Z,53.05
2022-11-02T11:01:17.571Z,53.17
2022-11-02T11:04:00.083Z,53.41
2022-11-02T11:06:30.776Z,52.35
2022-11-02T11:09:01.109Z,52.29
2022-11-02T11:11:33.549Z,50.31
2022-11-02T11:19:54.393Z,48.41
2022-11-02T11:22:25.790Z,48.10
2022-11-02T11:24:53.279Z,48.24
2022-11-02T11:27:22.771Z,47.96
2022-11-02T11:29:54.869Z,47.93
2022-11-02T11:32:30.580Z,48.03
2022-11-02T11:35:00.976Z,48.21
2022-11-02T11:37:28.148Z,47.81
2022-11-02T11:40:06.786Z,48.41
2022-11-02T11:42:36.631Z,47.64
2022-11-02T11:45:06.009Z,46.95
2022-11-02T11:47:37.858Z,47.41
2022-11-02T11:50:18.711Z,47.38
2022-11-02T11:53:09.377Z,46.38
2022-11-02T11:55:45.726Z,47.10
2022-11-02T11:58:19.045Z,48.19
2022-11-02T12:00:45.935Z,48.29
2022-11-02T12:03:14.196Z,47.80
2022-11-02T12:06:11.858Z,47.05
2022-11-02T12:08:46.959Z,45.76
2022-11-02T12:11:23.397Z,45.16
2022-11-02T12:14:05.484Z,44.62
2022-11-02T12:16:52.721Z,43.78
2022-11-02T12:19:33.848Z,41.97
2022-11-02T12:22:17.606Z,41.84
2022-11-02T12:24:56.553Z,40.79
2022-11-02T12:27:41.741Z,40.48
2022-11-02T12:30:20.222Z,39.62
2022-11-02T12:32:46.927Z,39.51
2022-11-02T12:35:45.103Z,40.33
2022-11-02T12:38:43.174Z,41.11
2022-11-02T12:41:14.796Z,41.33
2022-11-02T12:43:46.877Z,42.24
2022-11-02T12:49:04.670Z,42.48
2022-11-02T12:51:42.763Z,42.64
2022-11-02T12:54:12.055Z,42.01
2022-11-02T12:56:47.691Z,42.18
2022-11-02T12:59:18.472Z,41.36
2022-11-02T13:01:47.663Z,41.90
2022-11-02T13:04:32.950Z,41.70
2022-11-02T13:07:11.218Z,41.55
2022-11-02T13:09:53.782Z,41.51
2022-11-02T13:12:24.395Z,40.65
2022-11-02T13:14:55.635Z,40.83
2022-11-02T13:17:27.522Z,40.18
2022-11-02T13:19:58.076Z,40.99
2022-11-02T13:22:33.477Z,39.89
2022-11-02T13:25:15.215Z,40.19
2022-11-02T13:27:53.708Z,41.52
2022-11-02T13:30:21.272Z,41.98
2022-11-02T13:32:58.879Z,41.90
2022-11-02T13:35:34.929Z,42.52
2022-11-02T13:38:32.456Z,43.63
2022-11-02T13:41:31.148Z,45.12
2022-11-02T13:44:05.261Z,46.86
2022-11-02T13:47:03.289Z,47.15
2022-11-02T13:49:35.646Z,47.47
2022-11-02T13:52:09.508Z,48.36
2022-11-02T13:54:43.989Z,49.09
2022-11-02T13:57:32.697Z,50.13
2022-11-02T14:00:02.416Z,50.52
2022-11-02T14:02:36.376Z,51.23
2022-11-02T14:05:03.466Z,51.30
2022-11-02T14:07:35.523Z,51.48
2022-11-02T14:10:14.230Z,51.10
2022-11-02T14:12:49.476Z,51.74
2022-11-02T14:15:16.202Z,52.31
2022-11-02T14:18:07.994Z,53.04
2022-11-02T14:20:42.093Z,53.72
2022-11-02T14:23:10.164Z,54.15
2022-11-02T14:25:54.318Z,54.74
2022-11-02T14:28:21.107Z,55.55
2022-11-02T14:30:49.561Z,56.52
2022-11-02T14:33:45.353Z,57.12
2022-11-02T14:36:19.722Z,57.80
2022-11-02T14:41:42.768Z,59.02
2022-11-02T14:44:30.529Z,59.69
2022-11-02T14:47:14.431Z,60.30
2022-11-02T14:50:01.170Z,60.93
2022-11-02T14:52:32.138Z,61.37
2022-11-02T14:55:02.882Z,61.96
2022-11-02T14:57:34.984Z,62.51
2022-11-02T15:00:16.851Z,62.80
2022-11-02T15:02:44.666Z,63.28
2022-11-02T15:05:29.696Z,63.63
2022-11-02T15:07:59.917Z,64.36
2022-11-02T15:10:44.746Z,64.99
2022-11-02T15:13:18.866Z,66.17
2022-11-02T15:16:12.965Z,66.75
2022-11-02T15:18:40.652Z,67.87
2022-11-02T15:21:11.068Z,68.48
2022-11-02T15:23:52.035Z,69.21
2022-11-02T15:26:42.288Z,70.86
2022-11-02T15:29:20.906Z,71.72
2022-11-02T15:31:56.049Z,72.16
2022-11-02T15:34:33.355Z,71.94
2022-11-02T15:37:00.872Z,72.02
2022-11-02T15:39:27.817Z,72.40
2022-11-02T15:42:04.015Z,72.52
2022-11-02T15:44:38.912Z,72.72
2022-11-02T15:47:14.852Z,73.01
2022-11-02T15:50:12.407Z,73.20
2022-11-02T15:52:50.725Z,73.21
2022-11-02T15:55:56.801Z,73.32
2022-11-02T15:58:54.288Z,73.12
2022-11-02T16:01:22.515Z,73.24
2022-11-02T16:03:58.473Z,73.55
2022-11-02T16:06:44.641Z,73.49
2022-11-02T16:09:32.130Z,73.47
2022-11-02T16:12:17.129Z,73.46
2022-11-02T16:14:44.821Z,73.33
2022-11-02T16:17:27.123Z,73.08
2022-11-02T16:20:09.522Z,72.66
2022-11-02T16:22:37.167Z,72.66
2022-11-02T16:25:17.101Z,72.39
2022-11-02T16:27:43.778Z,72.18
2022-11-02T16:30:19.675Z,72.06
2022-11-02T16:32:51.041Z,71.88
2022-11-02T16:35:19.816Z,71.94
2022-11-02T16:37:48.594Z,71.87
2022-11-02T16:40:19.447Z,72.10
2022-11-02T16:42:47.811Z,72.31
2022-11-02T16:45:33.281Z,72.39
2022-11-02T16:48:04.248Z,72.44
2022-11-02T16:50:31.247Z,72.54
2022-11-02T16:53:02.234Z,72.65
2022-11-02T16:55:36.382Z,72.73
2022-11-02T16:58:06.773Z,73.06
2022-11-02T17:00:34.401Z,73.20
2022-11-02T17:03:09.673Z,73.24
2022-11-02T17:05:41.760Z,73.41
2022-11-02T17:08:28.038Z,73.41
2022-11-02T17:10:57.671Z,73.51
2022-11-02T17:13:26.973Z,73.50
2022-11-02T17:15:56.972Z,73.50
2022-11-02T17:18:28.210Z,73.37
2022-11-02T17:21:28.718Z,73.63
2022-11-02T17:23:57.731Z,73.82
2022-11-02T17:26:26.147Z,74.36
2022-11-02T17:28:54.278Z,74.43
2022-11-02T17:31:23.781Z,74.30
2022-11-02T17:33:52.040Z,74.16
2022-11-02T17:36:19.172Z,74.24
2022-11-02T17:38:46.111Z,74.42
2022-11-02T17:41:31.458Z,74.65
2022-11-02T17:43:58.725Z,74.85
2022-11-02T17:46:25.402Z,74.62
2022-11-02T17:48:52.081Z,74.33
2022-11-02T17:51:22.034Z,73.65
2022-11-02T17:53:49.981Z,73.31
2022-11-02T17:56:17.095Z,72.78
2022-11-02T17:58:43.752Z,72.59
2022-11-02T18:01:13.041Z,72.80
2022-11-02T18:03:40.099Z,72.84
2022-11-02T18:06:07.123Z,72.77
2022-11-02T18:08:54.729Z,72.97
2022-11-02T18:11:26.007Z,72.74
2022-11-02T18:13:53.878Z,72.87
2022-11-02T18:16:20.884Z,72.95
2022-11-02T18:18:47.676Z,72.73
2022-11-02T18:21:14.342Z,72.53
2022-11-02T18:23:41.740Z,72.13
2022-11-02T18:26:11.965Z,71.86
2022-11-02T18:28:39.139Z,71.95
2022-11-02T18:31:08.357Z,72.05
2022-11-02T18:33:35.406Z,71.93
2022-11-02T18:36:18.440Z,72.60
2022-11-02T18:38:45.448Z,72.73
2022-11-02T18:41:27.890Z,72.65
2022-11-02T18:44:00.679Z,72.72
2022-11-02T18:46:32.143Z,72.79
2022-11-02T18:48:59.583Z,72.92
2022-11-02T18:51:27.006Z,73.30
2022-11-02T18:53:56.101Z,73.39
2022-11-02T18:56:23.298Z,73.50
2022-11-02T18:58:51.603Z,73.54
2022-11-02T19:01:20.026Z,73.93
2022-11-02T19:04:02.183Z,74.40
2022-11-02T19:06:46.751Z,74.23
2022-11-02T19:09:18.284Z,74.18
2022-11-02T19:11:47.514Z,74.41
2022-11-02T19:14:14.405Z,74.30
2022-11-02T19:16:41.989Z,74.40
2022-11-02T19:19:08.803Z,74.68
2022-11-02T19:21:35.478Z,74.98
2022-11-02T19:24:04.603Z,75.15
2022-11-02T19:26:31.562Z,75.76
2022-11-02T19:29:02.907Z,76.35
2022-11-02T19:31:33.322Z,76.76
2022-11-02T19:34:00.117Z,77.25
2022-11-02T19:36:27.695Z,77.86
2022-11-02T19:38:54.376Z,78.19
2022-11-02T19:41:21.866Z,78.08
2022-11-02T19:43:48.534Z,78.06
2022-11-02T19:46:17.833Z,78.34
2022-11-02T19:48:45.069Z,78.39
2022-11-02T19:51:17.509Z,78.47
2022-11-02T19:53:50.927Z,78.52
2022-11-02T19:56:19.398Z,78.75
2022-11-02T19:58:49.109Z,78.75
2022-11-02T20:01:27.134Z,78.80
2022-11-02T20:03:55.339Z,78.66
2022-11-02T20:06:22.138Z,78.42
2022-11-02T20:08:51.066Z,78.09
2022-11-02T20:11:18.873Z,77.86
2022-11-02T20:13:47.143Z,77.48
2022-11-02T20:16:16.381Z,77.21
2022-11-02T20:18:44.838Z,77.04
2022-11-02T20:21:15.105Z,76.86
2022-11-02T20:23:43.095Z,76.88
2022-11-02T20:26:13.093Z,76.60
2022-11-02T20:28:43.102Z,76.23
2022-11-02T20:31:12.375Z,76.00
2022-11-02T20:33:40.714Z,75.74
2022-11-02T20:36:08.633Z,75.43
2022-11-02T20:38:36.185Z,75.24
2022-11-02T20:41:08.011Z,74.85
2022-11-02T20:43:36.361Z,74.72
2022-11-02T20:46:31.518Z,74.64
2022-11-02T20:48:53.231Z,74.58
2022-11-02T20:51:21.690Z,74.71
2022-11-02T20:53:49.474Z,74.83
2022-11-02T20:56:17.870Z,74.72
2022-11-02T20:58:48.957Z,74.71
2022-11-02T21:01:19.663Z,74.67
2022-11-02T21:03:46.505Z,74.65
2022-11-02T21:06:13.263Z,74.77
2022-11-02T21:08:40.563Z,74.96
2022-11-02T21:11:27.188Z,75.21
2022-11-02T21:13:53.885Z,75.26
2022-11-02T21:16:21.004Z,75.19
2022-11-02T21:18:48.030Z,75.28
2022-11-02T21:21:20.398Z,75.29
2022-11-02T21:23:47.410Z,75.03
2022-11-02T21:26:15.486Z,75.09
2022-11-02T21:28:44.836Z,75.16
2022-11-02T21:31:16.661Z,75.07
2022-11-02T21:33:45.783Z,75.20
2022-11-02T21:36:13.818Z,75.41
2022-11-02T21:38:41.028Z,75.62
2022-11-02T21:41:09.086Z,75.63
2022-11-02T21:43:37.485Z,75.37
2022-11-02T21:46:06.106Z,75.45
2022-11-02T21:48:34.933Z,75.37
2022-11-02T21:51:03.954Z,75.36
2022-11-02T21:53:32.578Z,75.17
2022-11-02T21:56:01.642Z,75.49
2022-11-02T21:58:28.545Z,76.03
2022-11-02T22:01:13.694Z,75.98
2022-11-02T22:03:40.436Z,75.79
2022-11-02T22:06:07.616Z,76.02
2022-11-02T22:08:41.587Z,76.26
2022-11-02T22:11:09.539Z,76.52
2022-11-02T22:13:37.164Z,76.50
2022-11-02T22:16:10.551Z,76.77
2022-11-02T22:18:37.312Z,77.20
2022-11-02T22:21:04.683Z,77.31
2022-11-02T22:23:31.706Z,77.18
2022-11-02T22:26:02.560Z,76.58
2022-11-02T22:28:31.928Z,76.41
2022-11-02T22:30:59.166Z,76.22
2022-11-02T22:33:26.388Z,76.43
2022-11-02T22:35:53.320Z,76.66
2022-11-02T22:38:35.712Z,77.07
2022-11-02T22:41:03.332Z,77.39
2022-11-02T22:43:30.109Z,77.49
2022-11-02T22:46:03.076Z,77.68
2022-11-02T22:48:30.203Z,78.22
2022-11-02T22:50:57.089Z,77.98
2022-11-02T22:53:26.022Z,77.65
2022-11-02T22:56:00.005Z,77.95
2022-11-02T22:58:27.969Z,78.13
2022-11-02T23:00:55.438Z,77.93
2022-11-02T23:03:22.342Z,78.35
2022-11-02T23:05:49.163Z,78.72
2022-11-02T23:08:16.012Z,78.92
2022-11-02T23:10:58.334Z,79.35
2022-11-02T23:13:25.936Z,79.53
2022-11-02T23:15:52.883Z,79.94
2022-11-02T23:18:39.686Z,80.28
2022-11-02T23:21:06.366Z,80.63
2022-11-02T23:23:48.988Z,80.84
2022-11-02T23:26:15.646Z,81.24
2022-11-02T23:28:58.180Z,81.76
2022-11-02T23:31:40.543Z,82.11
2022-11-02T23:34:07.222Z,82.42
2022-11-02T23:36:33.896Z,82.41
2022-11-02T23:39:16.000Z,82.38
2022-11-02T23:41:42.706Z,82.28
2022-11-02T23:44:13.856Z,82.30
2022-11-02T23:46:42.577Z,81.71
2022-11-02T23:49:10.335Z,81.34
2022-11-02T23:51:52.678Z,80.76
2022-11-02T23:54:34.885Z,80.65
2022-11-02T23:57:02.067Z,80.66
2022-11-02T23:59:29.385Z,80.81
